createdAt,value
2018-03-01T00:00:31.633Z,-6.90
2018-03-01T00:02:59.183Z,-6.90
2018-03-01T00:05:26.705Z,-6.90
2018-03-01T00:07:54.353Z,-6.90
2018-03-01T00:10:21.899Z,-7.00
2018-03-01T00:12:49.531Z,-6.90
2018-03-01T00:15:17.073Z,-6.90
2018-03-01T00:17:44.606Z,-6.90
2018-03-01T00:20:12.116Z,-6.90
2018-03-01T00:22:39.666Z,-6.90
2018-03-01T00:25:07.287Z,-6.90
2018-03-01T00:27:34.837Z,-6.90
2018-03-01T00:30:02.376Z,-6.90
2018-03-01T00:32:30.707Z,-6.80
2018-03-01T00:34:58.264Z,-6.90
2018-03-01T00:37:25.801Z,-6.80
2018-03-01T00:39:53.318Z,-6.80
2018-03-01T00:42:21.651Z,-6.80
2018-03-01T00:44:49.216Z,-6.80
2018-03-01T00:47:16.747Z,-6.80
2018-03-01T00:49:44.373Z,-6.80
2018-03-01T00:52:11.966Z,-6.80
2018-03-01T00:54:39.589Z,-6.80
2018-03-01T00:57:07.131Z,-6.80
2018-03-01T00:59:34.712Z,-6.80
2018-03-01T01:02:02.242Z,-6.80
2018-03-01T01:04:29.765Z,-6.80
2018-03-01T01:06:57.310Z,-6.80
2018-03-01T01:09:25.587Z,-6.80
2018-03-01T01:11:53.977Z,-6.80
2018-03-01T01:14:21.529Z,-6.80
2018-03-01T01:16:49.822Z,-6.70
2018-03-01T01:19:17.368Z,-6.80
2018-03-01T01:21:45.650Z,-6.70
2018-03-01T01:24:13.204Z,-6.80
2018-03-01T01:26:40.728Z,-6.80
2018-03-01T01:29:08.276Z,-6.70
2018-03-01T01:31:35.820Z,-6.70
2018-03-01T01:34:03.470Z,-6.80
2018-03-01T01:36:31.014Z,-6.70
2018-03-01T01:38:58.531Z,-6.70
2018-03-01T01:41:26.085Z,-6.70
2018-03-01T01:43:53.601Z,-6.70
2018-03-01T01:46:21.150Z,-6.70
2018-03-01T01:48:48.684Z,-6.80
2018-03-01T01:51:16.963Z,-6.80
2018-03-01T01:53:45.265Z,-6.80
2018-03-01T01:56:12.783Z,-6.80
2018-03-01T01:58:40.322Z,-6.80
2018-03-01T02:01:07.839Z,-6.80
2018-03-01T02:03:35.396Z,-6.90
2018-03-01T02:06:02.919Z,-6.90
2018-03-01T02:08:30.455Z,-6.90
2018-03-01T02:10:57.993Z,-6.90
2018-03-01T02:13:25.540Z,-6.90
2018-03-01T02:15:53.096Z,-6.90
2018-03-01T02:18:20.616Z,-6.90
2018-03-01T02:20:48.173Z,-6.90
2018-03-01T02:23:15.695Z,-6.90
2018-03-01T02:25:43.250Z,-6.90
2018-03-01T02:28:10.787Z,-6.90
2018-03-01T02:30:38.343Z,-6.90
2018-03-01T02:33:05.872Z,-6.90
2018-03-01T02:35:33.411Z,-6.90
2018-03-01T02:38:00.996Z,-6.90
2018-03-01T02:40:28.533Z,-6.90
2018-03-01T02:42:56.093Z,-6.90
2018-03-01T02:45:23.607Z,-6.90
2018-03-01T02:47:51.144Z,-6.90
2018-03-01T02:50:19.463Z,-6.90
2018-03-01T02:52:46.980Z,-6.90
2018-03-01T02:55:15.291Z,-6.90
2018-03-01T02:57:42.818Z,-6.90
2018-03-01T03:00:11.142Z,-7.00
2018-03-01T03:02:38.706Z,-7.00
2018-03-01T03:05:06.260Z,-7.00
2018-03-01T03:07:33.790Z,-6.90
2018-03-01T03:10:01.336Z,-6.90
2018-03-01T03:12:29.619Z,-6.90
2018-03-01T03:14:57.955Z,-6.90
2018-03-01T03:17:25.486Z,-7.00
2018-03-01T03:19:53.040Z,-6.90
2018-03-01T03:22:20.575Z,-6.90
2018-03-01T03:24:48.916Z,-6.90
2018-03-01T03:27:16.443Z,-7.00
2018-03-01T03:29:43.991Z,-6.90
2018-03-01T03:32:11.548Z,-6.90
2018-03-01T03:34:39.106Z,-6.90
2018-03-01T03:37:06.642Z,-6.90
2018-03-01T03:39:34.930Z,-6.90
2018-03-01T03:42:02.471Z,-6.90
2018-03-01T03:44:30.777Z,-6.90
2018-03-01T03:46:58.338Z,-6.90
2018-03-01T03:49:25.920Z,-6.90
2018-03-01T03:51:53.475Z,-6.90
2018-03-01T03:54:20.985Z,-6.90
2018-03-01T03:56:49.303Z,-6.90
2018-03-01T03:59:16.822Z,-6.90
2018-03-01T04:01:44.392Z,-6.90
2018-03-01T04:04:12.691Z,-6.90
2018-03-01T04:06:40.227Z,-6.90
2018-03-01T04:09:08.518Z,-6.90
2018-03-01T04:11:36.055Z,-6.90
2018-03-01T04:14:04.358Z,-6.90
2018-03-01T04:16:31.913Z,-6.90
2018-03-01T04:19:00.207Z,-6.90
2018-03-01T04:21:27.767Z,-6.90
2018-03-01T04:23:55.301Z,-6.90
2018-03-01T04:26:23.616Z,-6.90
2018-03-01T04:28:51.195Z,-6.90
2018-03-01T04:31:18.727Z,-6.90
2018-03-01T04:33:46.262Z,-6.90
2018-03-01T04:36:13.807Z,-6.90
2018-03-01T04:38:42.124Z,-6.90
2018-03-01T04:41:09.671Z,-6.90
2018-03-01T04:43:37.209Z,-6.90
2018-03-01T04:46:05.507Z,-6.90
2018-03-01T04:48:33.059Z,-6.90
2018-03-01T04:51:00.595Z,-6.90
2018-03-01T04:53:28.156Z,-6.90
2018-03-01T04:55:55.685Z,-6.90
2018-03-01T04:58:23.228Z,-6.80
2018-03-01T05:00:50.793Z,-6.90
2018-03-01T05:03:18.348Z,-6.90
2018-03-01T05:05:45.883Z,-6.90
2018-03-01T05:08:13.402Z,-6.90
2018-03-01T05:10:40.968Z,-6.90
2018-03-01T05:13:08.495Z,-6.90
2018-03-01T05:15:36.023Z,-6.90
2018-03-01T05:18:03.604Z,-6.90
2018-03-01T05:20:31.149Z,-6.90
2018-03-01T05:22:58.688Z,-6.90
2018-03-01T05:25:26.227Z,-6.90
2018-03-01T05:27:54.531Z,-6.90
2018-03-01T05:30:22.081Z,-6.90
2018-03-01T05:32:50.404Z,-6.80
2018-03-01T05:35:17.935Z,-6.90
2018-03-01T05:37:45.512Z,-6.90
2018-03-01T05:40:13.052Z,-6.90
2018-03-01T05:42:40.596Z,-6.90
2018-03-01T05:45:08.902Z,-6.90
2018-03-01T05:47:36.429Z,-6.90
2018-03-01T05:50:04.744Z,-6.90
2018-03-01T05:52:32.276Z,-7.00
2018-03-01T05:54:59.865Z,-6.90
2018-03-01T05:57:27.449Z,-6.90
2018-03-01T05:59:55.035Z,-6.90
2018-03-01T06:02:22.648Z,-6.90
2018-03-01T06:04:50.200Z,-6.90
2018-03-01T06:07:17.740Z,-6.90
2018-03-01T06:09:45.283Z,-7.00
2018-03-01T06:12:13.576Z,-7.00
2018-03-01T06:14:41.160Z,-7.00
2018-03-01T06:17:08.681Z,-6.90
2018-03-01T06:19:36.999Z,-6.90
2018-03-01T06:22:04.528Z,-6.90
2018-03-01T06:24:32.071Z,-6.90
2018-03-01T06:27:00.359Z,-6.90
2018-03-01T06:29:28.740Z,-6.90
2018-03-01T06:31:57.122Z,-6.90
2018-03-01T06:34:24.669Z,-6.90
2018-03-01T06:36:52.268Z,-6.90
2018-03-01T06:39:19.787Z,-6.90
2018-03-01T06:41:48.109Z,-6.80
2018-03-01T06:44:15.629Z,-6.80
2018-03-01T06:46:43.947Z,-6.90
2018-03-01T06:49:11.486Z,-6.90
2018-03-01T06:51:38.996Z,-6.80
2018-03-01T06:54:06.546Z,-6.80
2018-03-01T06:56:34.063Z,-6.80
2018-03-01T06:59:01.648Z,-6.80
2018-03-01T07:01:29.182Z,-6.70
2018-03-01T07:03:56.720Z,-6.80
2018-03-01T07:06:25.023Z,-6.80
2018-03-01T07:08:52.583Z,-6.80
2018-03-01T07:11:20.161Z,-6.80
2018-03-01T07:13:47.700Z,-6.80
2018-03-01T07:16:15.271Z,-6.70
2018-03-01T07:18:42.785Z,-6.70
2018-03-01T07:21:11.104Z,-6.70
2018-03-01T07:23:38.630Z,-6.70
2018-03-01T07:26:06.931Z,-6.60
2018-03-01T07:28:34.478Z,-6.60
2018-03-01T07:31:02.808Z,-6.60
2018-03-01T07:33:30.381Z,-6.60
2018-03-01T07:35:57.925Z,-6.50
2018-03-01T07:38:25.944Z,-6.50
2018-03-01T07:40:53.526Z,-6.50
2018-03-01T07:43:21.047Z,-6.50
2018-03-01T07:45:48.612Z,-6.40
2018-03-01T07:48:17.039Z,-6.30
2018-03-01T07:50:44.580Z,-6.30
2018-03-01T07:53:12.141Z,-6.30
2018-03-01T07:55:39.672Z,-6.30
2018-03-01T07:58:07.979Z,-6.20
2018-03-01T08:00:35.499Z,-6.20
2018-03-01T08:03:03.052Z,-6.10
2018-03-01T08:05:30.584Z,-6.10
2018-03-01T08:07:58.118Z,-6.00
2018-03-01T08:10:25.635Z,-5.80
2018-03-01T08:12:53.184Z,-5.70
2018-03-01T08:15:20.707Z,-5.70
2018-03-01T08:17:48.272Z,-5.70
2018-03-01T08:20:15.806Z,-5.70
2018-03-01T08:22:43.363Z,-5.70
2018-03-01T08:25:10.924Z,-5.60
2018-03-01T08:27:38.489Z,-5.60
2018-03-01T08:30:06.048Z,-5.60
2018-03-01T08:32:33.605Z,-5.60
2018-03-01T08:35:01.131Z,-5.60
2018-03-01T08:37:28.750Z,-5.50
2018-03-01T08:39:56.252Z,-5.50
2018-03-01T08:42:23.763Z,-5.50
2018-03-01T08:44:51.341Z,-5.40
2018-03-01T08:47:18.888Z,-5.30
2018-03-01T08:49:46.403Z,-5.40
2018-03-01T08:52:14.707Z,-5.40
2018-03-01T08:54:42.244Z,-5.40
2018-03-01T08:57:10.659Z,-5.20
2018-03-01T08:59:38.181Z,-5.30
2018-03-01T09:02:06.499Z,-5.30
2018-03-01T09:04:34.906Z,-5.30
2018-03-01T09:07:02.446Z,-5.30
2018-03-01T09:09:29.983Z,-5.10
2018-03-01T09:11:57.531Z,-5.10
2018-03-01T09:14:25.045Z,-5.10
2018-03-01T09:16:52.569Z,-5.10
2018-03-01T09:19:20.118Z,-4.90
2018-03-01T09:21:47.681Z,-4.90
2018-03-01T09:24:15.239Z,-4.80
2018-03-01T09:26:42.766Z,-4.90
2018-03-01T09:29:10.321Z,-4.70
2018-03-01T09:31:37.846Z,-4.60
2018-03-01T09:34:05.415Z,-4.60
2018-03-01T09:36:32.936Z,-4.70
2018-03-01T09:39:00.479Z,-4.60
2018-03-01T09:41:28.766Z,-4.50
2018-03-01T09:43:56.445Z,-4.50
2018-03-01T09:46:24.013Z,-4.60
2018-03-01T09:48:51.547Z,-4.50
2018-03-01T09:51:19.098Z,-4.60
2018-03-01T09:53:47.381Z,-4.20
2018-03-01T09:56:14.931Z,-4.20
2018-03-01T09:58:43.207Z,-4.10
2018-03-01T10:01:11.618Z,-4.10
2018-03-01T10:03:39.136Z,-4.20
2018-03-01T10:06:07.447Z,-3.90
2018-03-01T10:08:34.990Z,-3.90
2018-03-01T10:11:02.514Z,-3.70
2018-03-01T10:13:30.056Z,-3.90
2018-03-01T10:15:57.579Z,-3.60
2018-03-01T10:18:25.123Z,-3.30
2018-03-01T10:20:52.665Z,-3.30
2018-03-01T10:23:20.191Z,-3.20
2018-03-01T10:25:47.705Z,-3.40
2018-03-01T10:28:15.243Z,-3.50
2018-03-01T10:30:43.564Z,-3.50
2018-03-01T10:33:11.075Z,-3.50
2018-03-01T10:35:38.638Z,-3.50
2018-03-01T10:38:06.228Z,-3.50
2018-03-01T10:40:33.744Z,-3.50
2018-03-01T10:43:01.258Z,-3.50
2018-03-01T10:45:28.808Z,-3.30
2018-03-01T10:47:56.337Z,-3.10
2018-03-01T10:50:23.852Z,-3.00
2018-03-01T10:52:51.393Z,-3.30
2018-03-01T10:55:18.916Z,-3.40
2018-03-01T10:57:47.226Z,-3.20
2018-03-01T11:00:20.396Z,-3.20
2018-03-01T11:02:48.696Z,-3.00
2018-03-01T11:05:16.213Z,-3.00
2018-03-01T11:07:43.772Z,-3.10
2018-03-01T11:10:11.294Z,-2.90
2018-03-01T11:12:38.891Z,-2.60
2018-03-01T11:15:06.440Z,-2.60
2018-03-01T11:17:33.996Z,-2.50
2018-03-01T11:20:01.993Z,-2.70
2018-03-01T11:22:30.309Z,-2.60
2018-03-01T11:24:57.856Z,-2.60
2018-03-01T11:27:25.376Z,-2.50
2018-03-01T11:29:52.941Z,-2.20
2018-03-01T11:32:21.220Z,-2.40
2018-03-01T11:34:49.570Z,-2.20
2018-03-01T11:37:17.075Z,-2.30
2018-03-01T11:39:44.619Z,-2.40
2018-03-01T11:42:12.939Z,-2.20
2018-03-01T11:44:40.571Z,-2.20
2018-03-01T11:47:08.848Z,-2.00
2018-03-01T11:49:37.293Z,-2.00
2018-03-01T11:52:04.853Z,-2.00
2018-03-01T11:54:32.374Z,-1.70
2018-03-01T11:56:59.940Z,-1.80
2018-03-01T11:59:27.463Z,-1.70
2018-03-01T12:01:55.787Z,-1.70
2018-03-01T12:04:23.329Z,-1.70
2018-03-01T12:06:50.848Z,-1.50
2018-03-01T12:09:19.161Z,-1.80
2018-03-01T12:11:46.707Z,-1.80
2018-03-01T12:14:14.235Z,-1.90
2018-03-01T12:16:42.582Z,-1.60
2018-03-01T12:19:10.123Z,-1.60
2018-03-01T12:21:37.785Z,-1.70
2018-03-01T12:24:05.311Z,-1.50
2018-03-01T12:26:33.608Z,-1.50
2018-03-01T12:29:01.175Z,-1.50
2018-03-01T12:31:28.743Z,-1.40
2018-03-01T12:33:56.259Z,-1.40
2018-03-01T12:36:24.577Z,-1.40
2018-03-01T12:38:52.091Z,-1.50
2018-03-01T12:41:19.743Z,-1.20
2018-03-01T12:43:47.268Z,-1.30
2018-03-01T12:46:14.885Z,-1.30
2018-03-01T12:48:42.381Z,-1.40
2018-03-01T12:51:10.190Z,-1.30
2018-03-01T12:53:37.739Z,-1.30
2018-03-01T12:56:05.295Z,-1.20
2018-03-01T12:58:33.816Z,-1.20
2018-03-01T13:01:01.351Z,-1.20
2018-03-01T13:03:28.954Z,-1.20
2018-03-01T13:05:56.489Z,-1.00
2018-03-01T13:08:24.767Z,-0.80
2018-03-01T13:10:52.725Z,-0.80
2018-03-01T13:13:21.405Z,-0.90
2018-03-01T13:15:48.970Z,-0.90
2018-03-01T13:18:17.271Z,-0.60
2018-03-01T13:20:44.823Z,-0.60
2018-03-01T13:23:12.349Z,-0.80
2018-03-01T13:25:39.945Z,-0.80
2018-03-01T13:28:07.508Z,-0.70
2018-03-01T13:30:50.823Z,-0.70
2018-03-01T13:33:19.929Z,-0.40
2018-03-01T13:35:47.495Z,-0.50
2018-03-01T13:38:15.065Z,-0.60
2018-03-01T13:40:42.608Z,-0.70
2018-03-01T13:43:25.045Z,-0.70
2018-03-01T13:45:54.327Z,-0.50
2018-03-01T13:48:21.878Z,-0.30
2018-03-01T13:50:49.498Z,-0.50
2018-03-01T13:53:18.413Z,-0.50
2018-03-01T13:55:46.732Z,-0.60
2018-03-01T13:58:14.255Z,-0.60
2018-03-01T14:00:42.580Z,-0.40
2018-03-01T14:03:10.126Z,-0.50
2018-03-01T14:05:37.646Z,-0.40
2018-03-01T14:08:06.673Z,-0.40
2018-03-01T14:10:34.271Z,-0.40
2018-03-01T14:13:14.599Z,-0.40
2018-03-01T14:15:43.573Z,-0.30
2018-03-01T14:18:25.983Z,-0.20
2018-03-01T14:21:03.445Z,-0.10
2018-03-01T14:23:36.662Z,-0.20
2018-03-01T14:26:23.011Z,-0.10
2018-03-01T14:29:00.448Z,0.00
2018-03-01T14:31:27.992Z,0.10
2018-03-01T14:33:55.470Z,0.00
2018-03-01T14:36:23.979Z,-0.10
2018-03-01T14:38:51.506Z,-0.10
2018-03-01T14:41:19.824Z,-0.10
2018-03-01T14:43:47.352Z,-0.10
2018-03-01T14:46:15.686Z,-0.10
2018-03-01T14:48:44.167Z,-0.20
2018-03-01T14:51:11.711Z,-0.20
2018-03-01T14:53:39.276Z,-0.10
2018-03-01T14:56:06.829Z,0.00
2018-03-01T14:58:34.359Z,0.10
2018-03-01T15:01:01.990Z,0.20
2018-03-01T15:03:30.314Z,0.30
2018-03-01T15:05:57.834Z,0.30
2018-03-01T15:08:26.252Z,0.00
2018-03-01T15:10:53.800Z,0.00
2018-03-01T15:13:21.374Z,0.10
2018-03-01T15:15:49.253Z,0.10
2018-03-01T15:18:16.799Z,0.00
2018-03-01T15:20:44.449Z,-0.10
2018-03-01T15:23:11.980Z,0.00
2018-03-01T15:25:40.310Z,-0.20
2018-03-01T15:28:07.937Z,-0.10
2018-03-01T15:30:35.487Z,-0.20
2018-03-01T15:33:03.815Z,-0.30
2018-03-01T15:35:31.343Z,-0.20
2018-03-01T15:37:58.921Z,-0.30
2018-03-01T15:40:26.431Z,-0.30
2018-03-01T15:42:54.727Z,-0.20
2018-03-01T15:45:22.291Z,-0.20
2018-03-01T15:47:49.861Z,-0.30
2018-03-01T15:50:17.401Z,-0.20
2018-03-01T15:52:45.711Z,0.00
2018-03-01T15:55:13.270Z,0.00
2018-03-01T15:57:40.780Z,-0.10
2018-03-01T16:00:08.317Z,0.10
2018-03-01T16:02:35.877Z,0.00
2018-03-01T16:05:03.426Z,0.00
2018-03-01T16:07:31.228Z,-0.10
2018-03-01T16:09:58.900Z,-0.10
2018-03-01T16:12:26.445Z,-0.10
2018-03-01T16:14:54.752Z,-0.20
2018-03-01T16:17:22.284Z,-0.20
2018-03-01T16:19:50.675Z,-0.20
2018-03-01T16:22:19.464Z,-0.30
2018-03-01T16:24:47.086Z,-0.30
2018-03-01T16:27:14.618Z,-0.30
2018-03-01T16:29:42.133Z,-0.40
2018-03-01T16:32:10.451Z,-0.40
2018-03-01T16:34:37.999Z,-0.40
2018-03-01T16:37:05.520Z,-0.40
2018-03-01T16:39:33.063Z,-0.40
2018-03-01T16:42:00.592Z,-0.40
2018-03-01T16:44:28.127Z,-0.50
2018-03-01T16:46:55.658Z,-0.50
2018-03-01T16:49:23.204Z,-0.50
2018-03-01T16:51:51.400Z,-0.60
2018-03-01T16:54:19.154Z,-0.60
2018-03-01T16:56:46.712Z,-0.70
2018-03-01T16:59:14.241Z,-0.80
2018-03-01T17:01:41.805Z,-0.80
2018-03-01T17:04:09.593Z,-0.80
2018-03-01T17:06:38.426Z,-0.80
2018-03-01T17:09:07.311Z,-0.90
2018-03-01T17:11:36.941Z,-0.90
2018-03-01T17:14:05.797Z,-0.90
2018-03-01T17:16:33.546Z,-0.90
2018-03-01T17:19:03.258Z,-1.00
2018-03-01T17:21:32.400Z,-1.00
2018-03-01T17:24:00.705Z,-1.10
2018-03-01T17:26:29.703Z,-1.10
2018-03-01T17:28:57.308Z,-1.10
2018-03-01T17:31:25.670Z,-1.10
2018-03-01T17:33:53.206Z,-1.10
2018-03-01T17:36:20.736Z,-1.10
2018-03-01T17:38:48.376Z,-1.10
2018-03-01T17:41:15.993Z,-1.20
2018-03-01T17:43:43.569Z,-1.20
2018-03-01T17:46:11.096Z,-1.20
2018-03-01T17:48:38.677Z,-1.30
2018-03-01T17:51:06.208Z,-1.20
2018-03-01T17:53:33.855Z,-1.20
2018-03-01T17:56:01.395Z,-1.30
2018-03-01T17:58:29.035Z,-1.20
2018-03-01T18:01:00.206Z,-1.30
2018-03-01T18:03:27.883Z,-1.40
2018-03-01T18:05:55.437Z,-1.30
2018-03-01T18:08:22.962Z,-1.30
2018-03-01T18:10:51.309Z,-1.40
2018-03-01T18:13:18.871Z,-1.40
2018-03-01T18:15:49.796Z,-1.40
2018-03-01T18:18:18.343Z,-1.50
2018-03-01T18:20:45.918Z,-1.50
2018-03-01T18:23:13.498Z,-1.50
2018-03-01T18:25:41.019Z,-1.50
2018-03-01T18:28:08.594Z,-1.50
2018-03-01T18:30:36.123Z,-1.60
2018-03-01T18:33:04.444Z,-1.60
2018-03-01T18:35:31.972Z,-1.70
2018-03-01T18:37:59.550Z,-1.70
2018-03-01T18:40:27.068Z,-1.70
2018-03-01T18:42:54.587Z,-1.70
2018-03-01T18:45:22.141Z,-1.70
2018-03-01T18:47:49.669Z,-1.80
2018-03-01T18:50:17.221Z,-1.80
2018-03-01T18:52:45.507Z,-1.80
2018-03-01T18:55:13.071Z,-1.90
2018-03-01T18:57:42.575Z,-1.80
2018-03-01T19:00:10.092Z,-1.80
2018-03-01T19:02:38.904Z,-1.80
2018-03-01T19:05:06.456Z,-1.90
2018-03-01T19:07:34.007Z,-1.90
2018-03-01T19:10:01.554Z,-1.90
2018-03-01T19:12:29.099Z,-2.00
2018-03-01T19:14:56.629Z,-2.00
2018-03-01T19:17:24.176Z,-1.90
2018-03-01T19:19:52.588Z,-2.00
2018-03-01T19:22:20.154Z,-2.00
2018-03-01T19:24:47.683Z,-2.00
2018-03-01T19:27:15.222Z,-2.00
2018-03-01T19:29:43.640Z,-2.10
2018-03-01T19:32:11.146Z,-2.10
2018-03-01T19:34:38.747Z,-2.10
2018-03-01T19:37:06.290Z,-2.10
2018-03-01T19:39:34.590Z,-2.20
2018-03-01T19:42:02.223Z,-2.20
2018-03-01T19:44:30.544Z,-2.20
2018-03-01T19:46:58.090Z,-2.20
2018-03-01T19:49:25.628Z,-2.20
2018-03-01T19:51:53.179Z,-2.30
2018-03-01T19:54:21.572Z,-2.30
2018-03-01T19:56:49.091Z,-2.30
2018-03-01T19:59:16.685Z,-2.40
2018-03-01T20:01:44.242Z,-2.40
2018-03-01T20:04:12.590Z,-2.50
2018-03-01T20:06:40.108Z,-2.50
2018-03-01T20:09:07.758Z,-2.50
2018-03-01T20:11:35.674Z,-2.60
2018-03-01T20:14:03.223Z,-2.60
2018-03-01T20:16:30.828Z,-2.50
2018-03-01T20:18:58.430Z,-2.60
2018-03-01T20:21:26.006Z,-2.50
2018-03-01T20:23:53.618Z,-2.60
2018-03-01T20:26:22.352Z,-2.60
2018-03-01T20:28:49.996Z,-2.60
2018-03-01T20:31:18.407Z,-2.70
2018-03-01T20:33:47.000Z,-2.70
2018-03-01T20:36:14.573Z,-2.70
2018-03-01T20:38:43.272Z,-2.70
2018-03-01T20:41:11.663Z,-2.70
2018-03-01T20:43:39.241Z,-2.80
2018-03-01T20:46:07.294Z,-2.70
2018-03-01T20:48:35.620Z,-2.70
2018-03-01T20:51:03.194Z,-2.80
2018-03-01T20:53:31.693Z,-2.80
2018-03-01T20:56:00.116Z,-2.80
2018-03-01T20:58:27.984Z,-2.90
2018-03-01T21:00:55.874Z,-2.80
2018-03-01T21:03:24.392Z,-2.90
2018-03-01T21:05:53.250Z,-2.90
2018-03-01T21:08:21.609Z,-3.00
2018-03-01T21:10:49.198Z,-3.00
2018-03-01T21:13:16.717Z,-3.00
2018-03-01T21:15:44.276Z,-3.00
2018-03-01T21:18:11.812Z,-3.00
2018-03-01T21:20:39.376Z,-3.00
2018-03-01T21:23:07.456Z,-3.00
2018-03-01T21:25:35.052Z,-3.00
2018-03-01T21:28:02.985Z,-3.00
2018-03-01T21:30:30.557Z,-3.10
2018-03-01T21:32:58.119Z,-3.10
2018-03-01T21:35:25.691Z,-3.00
2018-03-01T21:37:53.248Z,-3.00
2018-03-01T21:40:20.846Z,-3.00
2018-03-01T21:42:48.656Z,-3.00
2018-03-01T21:45:16.264Z,-3.10
2018-03-01T21:47:44.274Z,-3.10
2018-03-01T21:50:13.062Z,-3.10
2018-03-01T21:52:41.756Z,-3.10
2018-03-01T21:55:10.337Z,-3.10
2018-03-01T21:57:37.956Z,-3.10
2018-03-01T22:00:05.592Z,-3.10
2018-03-01T22:02:33.157Z,-3.10
2018-03-01T22:05:00.674Z,-3.10
2018-03-01T22:07:28.463Z,-3.10
2018-03-01T22:09:55.982Z,-3.10
2018-03-01T22:12:24.275Z,-3.10
2018-03-01T22:14:52.266Z,-3.20
2018-03-01T22:17:19.853Z,-3.10
2018-03-01T22:19:47.361Z,-3.10
2018-03-01T22:22:15.256Z,-3.10
2018-03-01T22:24:42.777Z,-3.10
2018-03-01T22:27:11.055Z,-3.10
2018-03-01T22:29:39.374Z,-3.10
2018-03-01T22:32:06.883Z,-3.10
2018-03-01T22:34:34.431Z,-3.10
2018-03-01T22:37:01.976Z,-3.10
2018-03-01T22:39:29.576Z,-3.10
2018-03-01T22:41:57.163Z,-3.10
2018-03-01T22:44:24.725Z,-3.10
2018-03-01T22:46:52.251Z,-3.10
2018-03-01T22:49:20.548Z,-3.10
2018-03-01T22:51:48.107Z,-3.10
2018-03-01T22:54:15.618Z,-3.00
2018-03-01T22:56:43.139Z,-3.00
2018-03-01T22:59:11.833Z,-3.00
2018-03-01T23:01:39.398Z,-3.00
2018-03-01T23:04:06.942Z,-3.00
2018-03-01T23:06:34.482Z,-3.00
2018-03-01T23:09:02.081Z,-3.00
2018-03-01T23:11:29.601Z,-3.00
2018-03-01T23:13:57.151Z,-3.00
2018-03-01T23:16:25.444Z,-3.10
2018-03-01T23:18:52.980Z,-3.10
2018-03-01T23:21:21.299Z,-3.10
2018-03-01T23:23:48.810Z,-3.10
2018-03-01T23:26:16.290Z,-3.10
2018-03-01T23:28:43.851Z,-3.10
2018-03-01T23:31:11.371Z,-3.10
2018-03-01T23:33:38.940Z,-3.20
2018-03-01T23:36:06.474Z,-3.20
2018-03-01T23:38:33.991Z,-3.20
2018-03-01T23:41:01.519Z,-3.20
2018-03-01T23:43:29.051Z,-3.20
2018-03-01T23:45:56.562Z,-3.30
2018-03-01T23:48:24.808Z,-3.30
2018-03-01T23:50:53.131Z,-3.30
2018-03-01T23:53:20.651Z,-3.30
2018-03-01T23:55:48.163Z,-3.40
2018-03-01T23:58:15.713Z,-3.30
